createdAt,value
2018-11-04T00:00:29.533Z,1017.88
2018-11-04T00:01:29.519Z,1017.89
2018-11-04T00:02:29.503Z,1017.91
2018-11-04T00:03:29.507Z,1017.87
2018-11-04T00:04:29.509Z,1017.84
2018-11-04T00:05:29.487Z,1017.83
2018-11-04T00:06:29.482Z,1017.77
2018-11-04T00:07:29.482Z,1017.74
2018-11-04T00:08:29.474Z,1017.73
2018-11-04T00:09:29.454Z,1017.76
2018-11-04T00:10:29.452Z,1017.71
2018-11-04T00:11:29.438Z,1017.73
2018-11-04T00:12:29.429Z,1017.71
2018-11-04T00:13:29.417Z,1017.71
2018-11-04T00:14:29.410Z,1017.70
2018-11-04T00:15:29.401Z,1017.74
2018-11-04T00:16:29.397Z,1017.71
2018-11-04T00:17:29.391Z,1017.69
2018-11-04T00:18:29.394Z,1017.62
2018-11-04T00:19:29.373Z,1017.65
2018-11-04T00:20:29.353Z,1017.65
2018-11-04T00:21:29.358Z,1017.66
2018-11-04T00:22:29.339Z,1017.64
2018-11-04T00:23:29.350Z,1017.65
2018-11-04T00:24:29.322Z,1017.69
2018-11-04T00:25:29.312Z,1017.68
2018-11-04T00:26:29.322Z,1017.65
2018-11-04T00:27:29.295Z,1017.66
2018-11-04T00:28:29.306Z,1017.68
2018-11-04T00:29:29.282Z,1017.68
2018-11-04T00:30:29.270Z,1017.66
2018-11-04T00:31:29.270Z,1017.67
2018-11-04T00:32:29.258Z,1017.66
2018-11-04T00:33:29.244Z,1017.66
2018-11-04T00:34:29.242Z,1017.66
2018-11-04T00:35:29.242Z,1017.65
2018-11-04T00:36:29.224Z,1017.65
2018-11-04T00:37:29.224Z,1017.58
2018-11-04T00:38:29.205Z,1017.57
2018-11-04T00:39:29.208Z,1017.56
2018-11-04T00:40:29.191Z,1017.58
2018-11-04T00:41:29.186Z,1017.55
2018-11-04T00:42:29.185Z,1017.56
2018-11-04T00:43:29.158Z,1017.57
2018-11-04T00:44:29.156Z,1017.54
2018-11-04T00:45:29.273Z,1017.49
2018-11-04T00:46:29.132Z,1017.49
2018-11-04T00:47:29.124Z,1017.50
2018-11-04T00:48:29.184Z,1017.48
2018-11-04T00:49:29.121Z,1017.48
2018-11-04T00:50:29.112Z,1017.47
2018-11-04T00:51:29.100Z,1017.45
2018-11-04T00:52:29.079Z,1017.42
2018-11-04T00:53:29.070Z,1017.42
2018-11-04T00:54:29.062Z,1017.42
2018-11-04T00:55:29.056Z,1017.42
2018-11-04T00:56:29.051Z,1017.42
2018-11-04T00:57:29.044Z,1017.40
2018-11-04T00:58:29.037Z,1017.36
2018-11-04T00:59:29.032Z,1017.36
2018-11-04T01:00:29.031Z,1017.32
2018-11-04T01:01:29.057Z,1017.28
2018-11-04T01:02:28.998Z,1017.26
2018-11-04T01:03:28.992Z,1017.29
2018-11-04T01:04:28.988Z,1017.24
2018-11-04T01:05:28.966Z,1017.22
2018-11-04T01:06:28.966Z,1017.23
2018-11-04T01:07:28.961Z,1017.24
2018-11-04T01:08:28.953Z,1017.22
2018-11-04T01:09:28.954Z,1017.21
2018-11-04T01:10:28.934Z,1017.23
2018-11-04T01:11:28.922Z,1017.24
2018-11-04T01:12:28.908Z,1017.22
2018-11-04T01:13:28.907Z,1017.21
2018-11-04T01:14:28.902Z,1017.20
2018-11-04T01:15:28.888Z,1017.18
2018-11-04T01:16:28.884Z,1017.18
2018-11-04T01:17:28.894Z,1017.17
2018-11-04T01:18:28.873Z,1017.14
2018-11-04T01:19:28.861Z,1017.11
2018-11-04T01:20:28.845Z,1017.06
2018-11-04T01:21:28.834Z,1017.05
2018-11-04T01:22:28.832Z,1017.02
2018-11-04T01:23:28.831Z,1017.05
2018-11-04T01:24:28.900Z,1017.02
2018-11-04T01:25:28.800Z,1016.96
2018-11-04T01:26:28.795Z,1016.88
2018-11-04T01:27:28.784Z,1016.90
2018-11-04T01:28:28.783Z,1016.85
2018-11-04T01:29:28.779Z,1016.89
2018-11-04T01:30:28.858Z,1016.88
2018-11-04T01:31:28.752Z,1016.86
2018-11-04T01:32:28.748Z,1016.85
2018-11-04T01:33:28.729Z,1016.83
2018-11-04T01:34:28.725Z,1016.81
2018-11-04T01:35:28.747Z,1016.79
2018-11-04T01:36:28.710Z,1016.80
2018-11-04T01:37:28.703Z,1016.76
2018-11-04T01:38:28.687Z,1016.80
2018-11-04T01:39:28.679Z,1016.78
2018-11-04T01:40:28.677Z,1016.75
2018-11-04T01:41:28.663Z,1016.71
2018-11-04T01:42:28.662Z,1016.73
2018-11-04T01:43:28.653Z,1016.69
2018-11-04T01:44:28.640Z,1016.69
2018-11-04T01:45:28.653Z,1016.66
2018-11-04T01:46:28.649Z,1016.66
2018-11-04T01:47:28.618Z,1016.66
2018-11-04T01:48:28.615Z,1016.65
2018-11-04T01:49:28.600Z,1016.65
2018-11-04T01:50:28.601Z,1016.61
2018-11-04T01:51:28.589Z,1016.58
2018-11-04T01:52:28.574Z,1016.58
2018-11-04T01:53:28.561Z,1016.56
2018-11-04T01:54:28.554Z,1016.53
2018-11-04T01:55:28.553Z,1016.58
2018-11-04T01:56:28.548Z,1016.55
2018-11-04T01:57:28.527Z,1016.56
2018-11-04T01:58:28.513Z,1016.55
2018-11-04T01:59:28.508Z,1016.52
2018-11-04T02:00:28.515Z,1016.51
2018-11-04T02:01:28.501Z,1016.45
2018-11-04T02:02:28.494Z,1016.43
2018-11-04T02:03:28.490Z,1016.47
2018-11-04T02:04:28.470Z,1016.44
2018-11-04T02:05:28.464Z,1016.41
2018-11-04T02:06:28.450Z,1016.41
2018-11-04T02:07:28.443Z,1016.37
2018-11-04T02:08:28.432Z,1016.36
2018-11-04T02:09:28.444Z,1016.36
2018-11-04T02:10:28.434Z,1016.33
2018-11-04T02:11:28.416Z,1016.31
2018-11-04T02:12:28.401Z,1016.31
2018-11-04T02:13:28.394Z,1016.28
2018-11-04T02:14:28.385Z,1016.28
2018-11-04T02:15:28.369Z,1016.32
2018-11-04T02:16:28.364Z,1016.24
2018-11-04T02:17:28.367Z,1016.28
2018-11-04T02:18:28.352Z,1016.30
2018-11-04T02:19:28.344Z,1016.24
2018-11-04T02:20:28.330Z,1016.23
2018-11-04T02:21:28.333Z,1016.25
2018-11-04T02:22:28.324Z,1016.27
2018-11-04T02:23:28.309Z,1016.24
2018-11-04T02:24:28.313Z,1016.24
2018-11-04T02:25:28.304Z,1016.24
2018-11-04T02:26:28.285Z,1016.23
2018-11-04T02:27:28.289Z,1016.20
2018-11-04T02:28:28.289Z,1016.18
2018-11-04T02:29:28.264Z,1016.17
2018-11-04T02:30:28.240Z,1016.15
2018-11-04T02:31:28.240Z,1016.14
2018-11-04T02:32:28.234Z,1016.12
2018-11-04T02:33:28.224Z,1016.10
2018-11-04T02:34:28.219Z,1016.10
2018-11-04T02:35:28.203Z,1016.11
2018-11-04T02:36:28.205Z,1016.07
2018-11-04T02:37:28.195Z,1016.05
2018-11-04T02:38:28.177Z,1016.04
2018-11-04T02:39:28.174Z,1016.04
2018-11-04T02:40:28.170Z,1016.01
2018-11-04T02:41:28.156Z,1015.99
2018-11-04T02:42:28.159Z,1015.99
2018-11-04T02:43:28.131Z,1015.95
2018-11-04T02:44:28.148Z,1015.96
2018-11-04T02:45:28.120Z,1015.94
2018-11-04T02:46:28.120Z,1015.92
2018-11-04T02:47:28.110Z,1015.86
2018-11-04T02:48:28.099Z,1015.88
2018-11-04T02:49:28.087Z,1015.85
2018-11-04T02:50:28.074Z,1015.85
2018-11-04T02:51:28.096Z,1015.85
2018-11-04T02:52:28.061Z,1015.87
2018-11-04T02:53:28.055Z,1015.85
2018-11-04T02:54:28.040Z,1015.80
2018-11-04T02:55:28.032Z,1015.79
2018-11-04T02:56:28.040Z,1015.80
2018-11-04T02:57:28.016Z,1015.75
2018-11-04T02:58:28.024Z,1015.72
2018-11-04T02:59:28.004Z,1015.65
2018-11-04T03:00:27.996Z,1015.67
2018-11-04T03:01:27.993Z,1015.63
2018-11-04T03:02:27.983Z,1015.62
2018-11-04T03:03:27.973Z,1015.55
2018-11-04T03:04:27.955Z,1015.59
2018-11-04T03:05:27.950Z,1015.55
2018-11-04T03:06:27.941Z,1015.54
2018-11-04T03:07:27.931Z,1015.52
2018-11-04T03:08:27.934Z,1015.52
2018-11-04T03:09:27.924Z,1015.53
2018-11-04T03:10:27.909Z,1015.55
2018-11-04T03:11:27.904Z,1015.54
2018-11-04T03:12:27.885Z,1015.54
2018-11-04T03:13:27.881Z,1015.57
2018-11-04T03:14:27.874Z,1015.52
2018-11-04T03:15:27.871Z,1015.49
2018-11-04T03:16:27.848Z,1015.49
2018-11-04T03:17:27.845Z,1015.50
2018-11-04T03:18:27.834Z,1015.47
2018-11-04T03:19:27.832Z,1015.48
2018-11-04T03:20:27.830Z,1015.44
2018-11-04T03:21:27.815Z,1015.44
2018-11-04T03:22:27.800Z,1015.46
2018-11-04T03:23:27.849Z,1015.44
2018-11-04T03:24:27.820Z,1015.43
2018-11-04T03:25:27.783Z,1015.40
2018-11-04T03:26:27.775Z,1015.38
2018-11-04T03:27:27.770Z,1015.36
2018-11-04T03:28:27.749Z,1015.32
2018-11-04T03:29:27.753Z,1015.35
2018-11-04T03:30:27.744Z,1015.42
2018-11-04T03:31:27.733Z,1015.40
2018-11-04T03:32:27.731Z,1015.40
2018-11-04T03:33:27.716Z,1015.38
2018-11-04T03:34:27.705Z,1015.41
2018-11-04T03:35:27.701Z,1015.44
2018-11-04T03:36:27.694Z,1015.41
2018-11-04T03:37:27.684Z,1015.43
2018-11-04T03:38:27.664Z,1015.44
2018-11-04T03:39:27.674Z,1015.44
2018-11-04T03:40:27.655Z,1015.44
2018-11-04T03:41:27.653Z,1015.46
2018-11-04T03:42:27.637Z,1015.44
2018-11-04T03:43:27.633Z,1015.43
2018-11-04T03:44:27.619Z,1015.45
2018-11-04T03:45:27.612Z,1015.45
2018-11-04T03:46:27.605Z,1015.46
2018-11-04T03:47:27.597Z,1015.47
2018-11-04T03:48:27.584Z,1015.48
2018-11-04T03:49:27.571Z,1015.48
2018-11-04T03:50:27.568Z,1015.47
2018-11-04T03:51:27.558Z,1015.48
2018-11-04T03:52:27.554Z,1015.51
2018-11-04T03:53:27.545Z,1015.51
2018-11-04T03:54:27.541Z,1015.48
2018-11-04T03:55:27.520Z,1015.49
2018-11-04T03:56:27.516Z,1015.51
2018-11-04T03:57:27.512Z,1015.50
2018-11-04T03:58:27.506Z,1015.48
2018-11-04T03:59:27.495Z,1015.45
2018-11-04T04:00:27.495Z,1015.47
2018-11-04T04:01:27.478Z,1015.44
2018-11-04T04:02:27.467Z,1015.46
2018-11-04T04:03:27.456Z,1015.44
2018-11-04T04:04:27.498Z,1015.39
2018-11-04T04:05:27.456Z,1015.40
2018-11-04T04:06:27.443Z,1015.39
2018-11-04T04:07:27.422Z,1015.36
2018-11-04T04:08:27.417Z,1015.36
2018-11-04T04:09:27.411Z,1015.33
2018-11-04T04:10:27.391Z,1015.32
2018-11-04T04:11:27.391Z,1015.29
2018-11-04T04:12:27.385Z,1015.25
2018-11-04T04:13:27.380Z,1015.27
2018-11-04T04:14:27.367Z,1015.29
2018-11-04T04:15:27.360Z,1015.30
2018-11-04T04:16:27.337Z,1015.32
2018-11-04T04:17:27.336Z,1015.31
2018-11-04T04:18:27.330Z,1015.32
2018-11-04T04:19:27.325Z,1015.32
2018-11-04T04:20:27.310Z,1015.33
2018-11-04T04:21:27.302Z,1015.32
2018-11-04T04:22:27.299Z,1015.26
2018-11-04T04:23:27.281Z,1015.23
2018-11-04T04:24:27.277Z,1015.29
2018-11-04T04:25:27.267Z,1015.30
2018-11-04T04:26:27.269Z,1015.30
2018-11-04T04:27:27.274Z,1015.28
2018-11-04T04:28:27.243Z,1015.21
2018-11-04T04:29:27.232Z,1015.21
2018-11-04T04:30:27.234Z,1015.20
2018-11-04T04:31:27.220Z,1015.19
2018-11-04T04:32:27.205Z,1015.18
2018-11-04T04:33:27.200Z,1015.14
2018-11-04T04:34:27.201Z,1015.18
2018-11-04T04:35:27.179Z,1015.19
2018-11-04T04:36:27.172Z,1015.13
2018-11-04T04:37:27.166Z,1015.16
2018-11-04T04:38:27.159Z,1015.19
2018-11-04T04:39:27.148Z,1015.15
2018-11-04T04:40:27.144Z,1015.14
2018-11-04T04:41:27.132Z,1015.11
2018-11-04T04:42:27.125Z,1015.10
2018-11-04T04:43:27.112Z,1015.13
2018-11-04T04:44:27.100Z,1015.09
2018-11-04T04:45:27.099Z,1015.11
2018-11-04T04:46:27.089Z,1015.10
2018-11-04T04:47:27.088Z,1015.07
2018-11-04T04:48:27.065Z,1015.07
2018-11-04T04:49:27.062Z,1015.05
2018-11-04T04:50:27.057Z,1015.02
2018-11-04T04:51:27.043Z,1015.01
2018-11-04T04:52:27.042Z,1015.00
2018-11-04T04:53:27.057Z,1014.98
2018-11-04T04:54:27.012Z,1014.99
2018-11-04T04:55:27.005Z,1014.96
2018-11-04T04:56:27.000Z,1014.96
2018-11-04T04:57:26.994Z,1014.94
2018-11-04T04:58:26.995Z,1014.95
2018-11-04T04:59:26.972Z,1014.95
2018-11-04T05:00:26.977Z,1014.93
2018-11-04T05:01:26.965Z,1014.93
2018-11-04T05:02:26.952Z,1014.89
2018-11-04T05:03:26.940Z,1014.93
2018-11-04T05:04:26.936Z,1014.87
2018-11-04T05:05:26.931Z,1014.88
2018-11-04T05:06:26.919Z,1014.90
2018-11-04T05:07:26.909Z,1014.92
2018-11-04T05:08:26.907Z,1014.90
2018-11-04T05:09:26.895Z,1014.92
2018-11-04T05:10:26.887Z,1014.90
2018-11-04T05:11:26.887Z,1014.87
2018-11-04T05:12:26.871Z,1014.87
2018-11-04T05:13:26.865Z,1014.90
2018-11-04T05:14:26.857Z,1014.84
2018-11-04T05:15:26.845Z,1014.87
2018-11-04T05:16:26.835Z,1014.87
2018-11-04T05:17:26.816Z,1014.85
2018-11-04T05:18:26.818Z,1014.86
2018-11-04T05:19:26.810Z,1014.85
2018-11-04T05:20:26.799Z,1014.85
2018-11-04T05:21:26.792Z,1014.88
2018-11-04T05:22:26.777Z,1014.83
2018-11-04T05:23:26.770Z,1014.87
2018-11-04T05:24:26.767Z,1014.89
2018-11-04T05:25:26.756Z,1014.86
2018-11-04T05:26:26.754Z,1014.84
2018-11-04T05:27:26.740Z,1014.82
2018-11-04T05:28:26.732Z,1014.80
2018-11-04T05:29:26.728Z,1014.81
2018-11-04T05:30:26.717Z,1014.83
2018-11-04T05:31:26.703Z,1014.81
2018-11-04T05:32:26.691Z,1014.81
2018-11-04T05:33:26.684Z,1014.83
2018-11-04T05:34:26.682Z,1014.86
2018-11-04T05:35:26.674Z,1014.81
2018-11-04T05:36:26.657Z,1014.86
2018-11-04T05:37:26.655Z,1014.85
2018-11-04T05:38:26.758Z,1014.83
2018-11-04T05:39:26.632Z,1014.83
2018-11-04T05:40:26.624Z,1014.83
2018-11-04T05:41:26.650Z,1014.83
2018-11-04T05:42:26.611Z,1014.83
2018-11-04T05:43:26.606Z,1014.83
2018-11-04T05:44:26.603Z,1014.80
2018-11-04T05:45:26.584Z,1014.79
2018-11-04T05:46:26.574Z,1014.80
2018-11-04T05:47:26.566Z,1014.77
2018-11-04T05:48:26.553Z,1014.73
2018-11-04T05:49:26.563Z,1014.73
2018-11-04T05:50:26.543Z,1014.73
2018-11-04T05:51:26.529Z,1014.70
2018-11-04T05:52:26.526Z,1014.70
2018-11-04T05:53:26.512Z,1014.72
2018-11-04T05:54:26.509Z,1014.74
2018-11-04T05:55:26.494Z,1014.72
2018-11-04T05:56:26.491Z,1014.73
2018-11-04T05:57:26.481Z,1014.70
2018-11-04T05:58:26.493Z,1014.72
2018-11-04T05:59:26.464Z,1014.74
2018-11-04T06:00:26.458Z,1014.70
2018-11-04T06:01:26.449Z,1014.68
2018-11-04T06:02:26.439Z,1014.69
2018-11-04T06:03:26.432Z,1014.71
2018-11-04T06:04:26.423Z,1014.66
2018-11-04T06:05:26.408Z,1014.68
2018-11-04T06:06:26.413Z,1014.69
2018-11-04T06:07:26.396Z,1014.71
2018-11-04T06:08:26.388Z,1014.69
2018-11-04T06:09:26.377Z,1014.68
2018-11-04T06:10:26.370Z,1014.68
2018-11-04T06:11:26.368Z,1014.67
2018-11-04T06:12:26.351Z,1014.65
2018-11-04T06:13:26.347Z,1014.70
2018-11-04T06:14:26.347Z,1014.69
2018-11-04T06:15:26.333Z,1014.64
2018-11-04T06:16:26.328Z,1014.65
2018-11-04T06:17:26.313Z,1014.65
2018-11-04T06:18:26.302Z,1014.66
2018-11-04T06:19:26.427Z,1014.64
2018-11-04T06:20:26.293Z,1014.61
2018-11-04T06:21:26.277Z,1014.63
2018-11-04T06:22:26.266Z,1014.62
2018-11-04T06:23:26.260Z,1014.66
2018-11-04T06:24:26.255Z,1014.63
2018-11-04T06:25:26.239Z,1014.62
2018-11-04T06:26:26.252Z,1014.64
2018-11-04T06:27:26.223Z,1014.65
2018-11-04T06:28:26.218Z,1014.65
2018-11-04T06:29:26.219Z,1014.63
2018-11-04T06:30:26.198Z,1014.63
2018-11-04T06:31:26.197Z,1014.65
2018-11-04T06:32:26.179Z,1014.65
2018-11-04T06:33:26.181Z,1014.64
2018-11-04T06:34:26.192Z,1014.62
2018-11-04T06:35:26.163Z,1014.61
2018-11-04T06:36:26.143Z,1014.64
2018-11-04T06:37:26.139Z,1014.62
2018-11-04T06:38:26.133Z,1014.60
2018-11-04T06:39:26.130Z,1014.60
2018-11-04T06:40:26.112Z,1014.61
2018-11-04T06:41:26.108Z,1014.58
2018-11-04T06:42:26.089Z,1014.57
2018-11-04T06:43:26.089Z,1014.59
2018-11-04T06:44:26.078Z,1014.63
2018-11-04T06:45:26.073Z,1014.62
2018-11-04T06:46:26.080Z,1014.62
2018-11-04T06:47:26.112Z,1014.62
2018-11-04T06:48:26.050Z,1014.64
2018-11-04T06:49:26.030Z,1014.66
2018-11-04T06:50:26.022Z,1014.65
2018-11-04T06:51:26.025Z,1014.68
2018-11-04T06:52:26.009Z,1014.72
2018-11-04T06:53:26.005Z,1014.67
2018-11-04T06:54:26.001Z,1014.69
2018-11-04T06:55:25.979Z,1014.66
2018-11-04T06:56:25.976Z,1014.67
2018-11-04T06:57:25.962Z,1014.65
2018-11-04T06:58:25.959Z,1014.63
2018-11-04T06:59:25.948Z,1014.63
2018-11-04T07:00:25.937Z,1014.61
2018-11-04T07:01:25.930Z,1014.57
2018-11-04T07:02:25.928Z,1014.53
2018-11-04T07:03:25.919Z,1014.55
2018-11-04T07:04:25.914Z,1014.57
2018-11-04T07:05:25.893Z,1014.58
2018-11-04T07:06:25.892Z,1014.59
2018-11-04T07:07:25.883Z,1014.57
2018-11-04T07:08:25.872Z,1014.58
2018-11-04T07:09:25.873Z,1014.58
2018-11-04T07:10:25.860Z,1014.58
2018-11-04T07:11:25.844Z,1014.57
2018-11-04T07:12:25.837Z,1014.62
2018-11-04T07:13:25.830Z,1014.62
2018-11-04T07:14:25.825Z,1014.63
2018-11-04T07:15:25.820Z,1014.63
2018-11-04T07:16:25.804Z,1014.59
2018-11-04T07:17:25.800Z,1014.61
2018-11-04T07:18:25.795Z,1014.57
2018-11-04T07:19:25.775Z,1014.63
2018-11-04T07:20:25.773Z,1014.61
2018-11-04T07:21:25.764Z,1014.59
2018-11-04T07:22:25.769Z,1014.55
2018-11-04T07:23:25.748Z,1014.55
2018-11-04T07:24:25.739Z,1014.57
2018-11-04T07:25:25.784Z,1014.59
2018-11-04T07:26:25.717Z,1014.55
2018-11-04T07:27:25.715Z,1014.57
2018-11-04T07:28:25.704Z,1014.55
2018-11-04T07:29:25.703Z,1014.56
2018-11-04T07:30:25.690Z,1014.56
2018-11-04T07:31:25.679Z,1014.56
2018-11-04T07:32:25.679Z,1014.56
2018-11-04T07:33:25.659Z,1014.52
2018-11-04T07:34:25.647Z,1014.51
2018-11-04T07:35:25.641Z,1014.46
2018-11-04T07:36:25.635Z,1014.47
2018-11-04T07:37:25.638Z,1014.49
2018-11-04T07:38:25.622Z,1014.44
2018-11-04T07:39:25.614Z,1014.49
2018-11-04T07:40:25.604Z,1014.41
2018-11-04T07:41:25.590Z,1014.41
2018-11-04T07:42:25.583Z,1014.46
2018-11-04T07:43:25.574Z,1014.42
2018-11-04T07:44:25.615Z,1014.41
2018-11-04T07:45:25.558Z,1014.39
2018-11-04T07:46:25.548Z,1014.38
2018-11-04T07:47:25.538Z,1014.37
2018-11-04T07:48:25.531Z,1014.36
2018-11-04T07:49:25.530Z,1014.37
2018-11-04T07:50:25.542Z,1014.37
2018-11-04T07:51:25.518Z,1014.35
2018-11-04T07:52:25.499Z,1014.34
2018-11-04T07:53:25.493Z,1014.33
2018-11-04T07:54:25.488Z,1014.32
2018-11-04T07:55:25.477Z,1014.33
2018-11-04T07:56:25.475Z,1014.28
2018-11-04T07:57:25.452Z,1014.31
2018-11-04T07:58:25.445Z,1014.27
2018-11-04T07:59:25.450Z,1014.31
2018-11-04T08:00:25.441Z,1014.30
2018-11-04T08:01:25.424Z,1014.30
2018-11-04T08:02:25.419Z,1014.28
2018-11-04T08:03:25.432Z,1014.25
2018-11-04T08:04:25.403Z,1014.28
2018-11-04T08:05:25.398Z,1014.31
2018-11-04T08:06:25.374Z,1014.29
2018-11-04T08:07:25.373Z,1014.27
2018-11-04T08:08:25.367Z,1014.23
2018-11-04T08:09:25.380Z,1014.25
2018-11-04T08:10:25.341Z,1014.23
2018-11-04T08:11:25.344Z,1014.21
2018-11-04T08:12:25.321Z,1014.23
2018-11-04T08:13:25.336Z,1014.19
2018-11-04T08:14:25.311Z,1014.20
2018-11-04T08:15:25.305Z,1014.21
2018-11-04T08:16:25.287Z,1014.19
2018-11-04T08:17:25.287Z,1014.17
2018-11-04T08:18:25.279Z,1014.13
2018-11-04T08:19:25.263Z,1014.16
2018-11-04T08:20:25.262Z,1014.12
2018-11-04T08:21:25.288Z,1014.13
2018-11-04T08:22:25.250Z,1014.14
2018-11-04T08:23:25.235Z,1014.09
2018-11-04T08:24:25.226Z,1014.15
2018-11-04T08:25:25.215Z,1014.14
2018-11-04T08:26:25.214Z,1014.12
2018-11-04T08:27:25.218Z,1014.10
2018-11-04T08:28:25.202Z,1014.12
2018-11-04T08:29:25.182Z,1014.10
2018-11-04T08:30:25.174Z,1014.10
2018-11-04T08:31:25.167Z,1014.08
2018-11-04T08:32:25.185Z,1014.08
2018-11-04T08:33:25.156Z,1014.07
2018-11-04T08:34:25.139Z,1014.11
2018-11-04T08:35:25.136Z,1014.05
2018-11-04T08:36:25.139Z,1014.05
2018-11-04T08:37:25.114Z,1014.07
2018-11-04T08:38:25.111Z,1014.02
2018-11-04T08:39:25.101Z,1014.01
2018-11-04T08:40:25.268Z,1014.04
2018-11-04T08:41:25.081Z,1014.00
2018-11-04T08:42:25.077Z,1013.98
2018-11-04T08:43:25.058Z,1013.97
2018-11-04T08:44:25.066Z,1013.99
2018-11-04T08:45:25.051Z,1013.98
2018-11-04T08:46:25.047Z,1014.00
2018-11-04T08:47:25.027Z,1013.97
2018-11-04T08:48:25.020Z,1014.01
2018-11-04T08:49:25.024Z,1013.99
2018-11-04T08:50:25.007Z,1013.98
2018-11-04T08:51:24.997Z,1013.96
2018-11-04T08:52:25.041Z,1013.94
2018-11-04T08:53:24.976Z,1013.92
2018-11-04T08:54:24.981Z,1013.95
2018-11-04T08:55:24.955Z,1013.90
2018-11-04T08:56:24.969Z,1013.90
2018-11-04T08:57:24.951Z,1013.92
2018-11-04T08:58:24.959Z,1013.91
2018-11-04T08:59:24.937Z,1013.89
2018-11-04T09:00:24.911Z,1013.86
2018-11-04T09:01:24.912Z,1013.90
2018-11-04T09:02:24.901Z,1013.89
2018-11-04T09:03:24.900Z,1013.86
2018-11-04T09:04:24.883Z,1013.85
2018-11-04T09:05:24.880Z,1013.86
2018-11-04T09:06:24.937Z,1013.84
2018-11-04T09:07:24.860Z,1013.82
2018-11-04T09:08:24.853Z,1013.83
2018-11-04T09:09:24.846Z,1013.80
2018-11-04T09:10:24.837Z,1013.84
2018-11-04T09:11:24.843Z,1013.83
2018-11-04T09:12:24.829Z,1013.80
2018-11-04T09:13:24.810Z,1013.77
2018-11-04T09:14:24.849Z,1013.74
2018-11-04T09:15:24.785Z,1013.75
2018-11-04T09:16:24.786Z,1013.78
2018-11-04T09:17:24.771Z,1013.77
2018-11-04T09:18:24.772Z,1013.75
2018-11-04T09:19:24.754Z,1013.76
2018-11-04T09:20:24.764Z,1013.77
2018-11-04T09:21:24.731Z,1013.80
2018-11-04T09:22:24.780Z,1013.74
2018-11-04T09:23:24.744Z,1013.75
2018-11-04T09:24:24.718Z,1013.71
2018-11-04T09:25:24.701Z,1013.72
2018-11-04T09:26:24.694Z,1013.69
2018-11-04T09:27:24.711Z,1013.67
2018-11-04T09:28:24.682Z,1013.65
2018-11-04T09:29:24.667Z,1013.65
2018-11-04T09:30:24.700Z,1013.67
2018-11-04T09:31:24.652Z,1013.67
2018-11-04T09:32:24.666Z,1013.65
2018-11-04T09:33:24.637Z,1013.69
2018-11-04T09:34:24.622Z,1013.67
2018-11-04T09:35:24.754Z,1013.69
2018-11-04T09:36:24.866Z,1013.68
2018-11-04T09:37:24.605Z,1013.73
2018-11-04T09:38:24.595Z,1013.72
2018-11-04T09:39:24.591Z,1013.71
2018-11-04T09:40:24.588Z,1013.69
2018-11-04T09:41:24.566Z,1013.68
2018-11-04T09:42:24.570Z,1013.71
2018-11-04T09:43:24.575Z,1013.71
2018-11-04T09:44:24.541Z,1013.72
2018-11-04T09:45:24.539Z,1013.71
2018-11-04T09:46:24.537Z,1013.73
2018-11-04T09:47:24.520Z,1013.73
2018-11-04T09:48:24.521Z,1013.70
2018-11-04T09:49:24.508Z,1013.75
2018-11-04T09:50:24.495Z,1013.75
2018-11-04T09:51:24.488Z,1013.74
2018-11-04T09:52:24.483Z,1013.76
2018-11-04T09:53:24.468Z,1013.76
2018-11-04T09:54:24.448Z,1013.81
2018-11-04T09:55:24.451Z,1013.77
2018-11-04T09:56:24.487Z,1013.77
2018-11-04T09:57:24.432Z,1013.75
2018-11-04T09:58:24.438Z,1013.77
2018-11-04T09:59:24.440Z,1013.71
2018-11-04T10:00:24.409Z,1013.72
2018-11-04T10:01:24.468Z,1013.72
2018-11-04T10:02:24.388Z,1013.73
2018-11-04T10:03:24.386Z,1013.78
2018-11-04T10:04:24.375Z,1013.73
2018-11-04T10:05:24.363Z,1013.75
2018-11-04T10:06:24.357Z,1013.73
2018-11-04T10:07:24.349Z,1013.75
2018-11-04T10:08:24.372Z,1013.72
2018-11-04T10:09:24.323Z,1013.74
2018-11-04T10:10:24.330Z,1013.70
2018-11-04T10:11:24.334Z,1013.73
2018-11-04T10:12:24.328Z,1013.73
2018-11-04T10:13:24.327Z,1013.70
2018-11-04T10:14:24.295Z,1013.73
2018-11-04T10:15:24.280Z,1013.69
2018-11-04T10:16:24.346Z,1013.72
2018-11-04T10:17:24.335Z,1013.70
2018-11-04T10:18:24.246Z,1013.70
2018-11-04T10:19:24.606Z,1013.65
2018-11-04T10:20:24.490Z,1013.67
2018-11-04T10:21:24.234Z,1013.67
2018-11-04T10:22:24.213Z,1013.68
2018-11-04T10:23:24.224Z,1013.64
2018-11-04T10:24:24.221Z,1013.63
2018-11-04T10:25:24.207Z,1013.62
2018-11-04T10:26:24.176Z,1013.60
2018-11-04T10:27:24.192Z,1013.60
2018-11-04T10:28:24.165Z,1013.60
2018-11-04T10:29:24.159Z,1013.52
2018-11-04T10:30:24.194Z,1013.57
2018-11-04T10:31:24.149Z,1013.53
2018-11-04T10:32:24.139Z,1013.52
2018-11-04T10:33:24.184Z,1013.49
2018-11-04T10:34:24.128Z,1013.45
2018-11-04T10:35:24.119Z,1013.51
2018-11-04T10:36:24.118Z,1013.50
2018-11-04T10:37:24.182Z,1013.46
2018-11-04T10:38:24.118Z,1013.40
2018-11-04T10:39:24.083Z,1013.43
2018-11-04T10:40:24.062Z,1013.42
2018-11-04T10:41:24.081Z,1013.43
2018-11-04T10:42:24.108Z,1013.42
2018-11-04T10:43:24.049Z,1013.43
2018-11-04T10:44:24.058Z,1013.44
2018-11-04T10:45:24.024Z,1013.40
2018-11-04T10:46:24.014Z,1013.35
2018-11-04T10:47:24.003Z,1013.42
2018-11-04T10:48:24.001Z,1013.38
2018-11-04T10:49:24.128Z,1013.35
2018-11-04T10:50:23.981Z,1013.37
2018-11-04T10:51:23.998Z,1013.31
2018-11-04T10:52:23.978Z,1013.34
2018-11-04T10:53:23.946Z,1013.31
2018-11-04T10:54:23.953Z,1013.32
2018-11-04T10:55:23.943Z,1013.30
2018-11-04T10:56:23.933Z,1013.27
2018-11-04T10:57:23.929Z,1013.26
2018-11-04T10:58:23.913Z,1013.22
2018-11-04T10:59:23.909Z,1013.23
2018-11-04T11:00:23.903Z,1013.18
2018-11-04T11:01:23.879Z,1013.17
2018-11-04T11:02:23.878Z,1013.17
2018-11-04T11:03:23.862Z,1013.20
2018-11-04T11:04:23.873Z,1013.15
2018-11-04T11:05:23.844Z,1013.13
2018-11-04T11:06:23.843Z,1013.07
2018-11-04T11:07:23.833Z,1013.01
2018-11-04T11:08:23.817Z,1012.98
2018-11-04T11:09:23.844Z,1012.93
2018-11-04T11:10:23.811Z,1012.90
2018-11-04T11:11:23.798Z,1012.90
2018-11-04T11:12:23.786Z,1012.87
2018-11-04T11:13:23.792Z,1012.90
2018-11-04T11:14:23.780Z,1012.86
2018-11-04T11:15:23.772Z,1012.89
2018-11-04T11:16:23.761Z,1012.85
2018-11-04T11:17:23.768Z,1012.84
2018-11-04T11:18:23.745Z,1012.79
2018-11-04T11:19:23.743Z,1012.78
2018-11-04T11:20:23.725Z,1012.79
2018-11-04T11:21:23.715Z,1012.75
2018-11-04T11:22:23.716Z,1012.73
2018-11-04T11:23:23.703Z,1012.71
2018-11-04T11:24:23.717Z,1012.68
2018-11-04T11:25:23.698Z,1012.67
2018-11-04T11:26:23.673Z,1012.65
2018-11-04T11:27:23.664Z,1012.61
2018-11-04T11:28:23.663Z,1012.62
2018-11-04T11:29:23.648Z,1012.62
2018-11-04T11:30:23.640Z,1012.65
2018-11-04T11:31:23.687Z,1012.59
2018-11-04T11:32:23.681Z,1012.62
2018-11-04T11:33:23.614Z,1012.60
2018-11-04T11:34:23.632Z,1012.54
2018-11-04T11:35:23.604Z,1012.54
2018-11-04T11:36:23.603Z,1012.54
2018-11-04T11:37:23.596Z,1012.51
2018-11-04T11:38:23.559Z,1012.49
2018-11-04T11:39:23.567Z,1012.48
2018-11-04T11:40:23.564Z,1012.41
2018-11-04T11:41:23.554Z,1012.40
2018-11-04T11:42:23.547Z,1012.37
2018-11-04T11:43:23.528Z,1012.31
2018-11-04T11:44:23.520Z,1012.33
2018-11-04T11:45:23.523Z,1012.28
2018-11-04T11:46:23.499Z,1012.30
2018-11-04T11:47:23.490Z,1012.26
2018-11-04T11:48:23.510Z,1012.24
2018-11-04T11:49:23.473Z,1012.24
2018-11-04T11:50:23.475Z,1012.26
2018-11-04T11:51:23.465Z,1012.22
2018-11-04T11:52:23.489Z,1012.25
2018-11-04T11:53:23.448Z,1012.22
2018-11-04T11:54:23.434Z,1012.23
2018-11-04T11:55:23.435Z,1012.20
2018-11-04T11:56:23.419Z,1012.22
2018-11-04T11:57:23.409Z,1012.23
2018-11-04T11:58:23.412Z,1012.20
2018-11-04T11:59:23.475Z,1012.19
2018-11-04T12:00:23.377Z,1012.21
2018-11-04T12:01:23.372Z,1012.20
2018-11-04T12:02:23.472Z,1012.14
2018-11-04T12:03:23.358Z,1012.13
2018-11-04T12:04:23.354Z,1012.10
2018-11-04T12:05:23.334Z,1012.12